sensor_id;sensor_type;location;lat;lon;timestamp;P1;durP1;ratioP1;P2;durP2;ratioP2
16699;SDS011;8466;52.286;21.124;2023-04-02T00:01:27;14.83;;;13.57;;
16699;SDS011;8466;52.286;21.124;2023-04-02T00:04:06;16.33;;;15.23;;
16699;SDS011;8466;52.286;21.124;2023-04-02T00:06:53;16.17;;;14.97;;
16699;SDS011;8466;52.286;21.124;2023-04-02T00:09:29;9.10;;;8.30;;
16699;SDS011;8466;52.286;21.124;2023-04-02T00:12:11;11.17;;;10.37;;
16699;SDS011;8466;52.286;21.124;2023-04-02T00:14:48;11.02;;;10.27;;
16699;SDS011;8466;52.286;21.124;2023-04-02T00:17:19;14.90;;;13.87;;
16699;SDS011;8466;52.286;21.124;2023-04-02T00:19:51;14.07;;;12.97;;
16699;SDS011;8466;52.286;21.124;2023-04-02T00:22:24;12.43;;;11.47;;
16699;SDS011;8466;52.286;21.124;2023-04-02T00:24:55;12.40;;;11.50;;
16699;SDS011;8466;52.286;21.124;2023-04-02T00:27:41;14.00;;;12.93;;
16699;SDS011;8466;52.286;21.124;2023-04-02T00:30:12;12.10;;;11.10;;
16699;SDS011;8466;52.286;21.124;2023-04-02T00:32:41;14.73;;;13.73;;
16699;SDS011;8466;52.286;21.124;2023-04-02T00:35:10;11.87;;;11.03;;
16699;SDS011;8466;52.286;21.124;2023-04-02T00:37:45;11.70;;;10.77;;
16699;SDS011;8466;52.286;21.124;2023-04-02T00:40:15;14.48;;;13.48;;
16699;SDS011;8466;52.286;21.124;2023-04-02T00:42:47;9.30;;;8.50;;
16699;SDS011;8466;52.286;21.124;2023-04-02T00:45:21;11.25;;;10.45;;
16699;SDS011;8466;52.286;21.124;2023-04-02T00:47:51;13.20;;;12.10;;
16699;SDS011;8466;52.286;21.124;2023-04-02T00:50:22;9.45;;;8.65;;
16699;SDS011;8466;52.286;21.124;2023-04-02T00:52:57;12.03;;;11.13;;
16699;SDS011;8466;52.286;21.124;2023-04-02T00:55:31;13.80;;;12.80;;
16699;SDS011;8466;52.286;21.124;2023-04-02T00:58:04;12.20;;;11.30;;
16699;SDS011;8466;52.286;21.124;2023-04-02T01:00:48;13.80;;;12.73;;
16699;SDS011;8466;52.286;21.124;2023-04-02T01:03:30;13.93;;;12.93;;
16699;SDS011;8466;52.286;21.124;2023-04-02T01:06:04;16.73;;;15.47;;
16699;SDS011;8466;52.286;21.124;2023-04-02T01:11:45;13.77;;;12.67;;
16699;SDS011;8466;52.286;21.124;2023-04-02T01:14:28;13.33;;;12.23;;
16699;SDS011;8466;52.286;21.124;2023-04-02T01:17:11;16.30;;;15.07;;
16699;SDS011;8466;52.286;21.124;2023-04-02T01:19:56;14.43;;;13.30;;
16699;SDS011;8466;52.286;21.124;2023-04-02T01:22:50;14.23;;;13.07;;
16699;SDS011;8466;52.286;21.124;2023-04-02T01:25:26;13.43;;;12.33;;
16699;SDS011;8466;52.286;21.124;2023-04-02T01:28:03;12.43;;;11.33;;
16699;SDS011;8466;52.286;21.124;2023-04-02T01:30:38;14.80;;;13.70;;
16699;SDS011;8466;52.286;21.124;2023-04-02T01:33:14;15.27;;;14.07;;
16699;SDS011;8466;52.286;21.124;2023-04-02T01:35:43;14.30;;;13.20;;
16699;SDS011;8466;52.286;21.124;2023-04-02T01:38:20;15.43;;;14.20;;
16699;SDS011;8466;52.286;21.124;2023-04-02T01:40:56;15.83;;;14.63;;
16699;SDS011;8466;52.286;21.124;2023-04-02T01:43:35;13.47;;;12.27;;
16699;SDS011;8466;52.286;21.124;2023-04-02T01:46:24;13.87;;;12.77;;
16699;SDS011;8466;52.286;21.124;2023-04-02T01:49:02;14.53;;;13.40;;
16699;SDS011;8466;52.286;21.124;2023-04-02T01:51:43;15.30;;;14.17;;
16699;SDS011;8466;52.286;21.124;2023-04-02T01:54:15;14.87;;;13.77;;
16699;SDS011;8466;52.286;21.124;2023-04-02T01:56:45;15.67;;;14.37;;
16699;SDS011;8466;52.286;21.124;2023-04-02T01:59:25;14.73;;;13.70;;
16699;SDS011;8466;52.286;21.124;2023-04-02T02:01:58;13.43;;;12.43;;
16699;SDS011;8466;52.286;21.124;2023-04-02T02:04:35;21.40;;;20.00;;
16699;SDS011;8466;52.286;21.124;2023-04-02T02:07:11;17.67;;;16.47;;
16699;SDS011;8466;52.286;21.124;2023-04-02T02:09:50;14.13;;;13.13;;
16699;SDS011;8466;52.286;21.124;2023-04-02T02:12:25;14.10;;;13.20;;
16699;SDS011;8466;52.286;21.124;2023-04-02T02:14:56;15.60;;;14.60;;
16699;SDS011;8466;52.286;21.124;2023-04-02T02:17:43;15.50;;;14.50;;
16699;SDS011;8466;52.286;21.124;2023-04-02T02:20:41;20.40;;;19.13;;
16699;SDS011;8466;52.286;21.124;2023-04-02T02:23:15;15.67;;;14.60;;
16699;SDS011;8466;52.286;21.124;2023-04-02T02:25:46;18.50;;;17.30;;
16699;SDS011;8466;52.286;21.124;2023-04-02T02:28:17;14.63;;;13.63;;
16699;SDS011;8466;52.286;21.124;2023-04-02T02:30:55;18.57;;;17.33;;
16699;SDS011;8466;52.286;21.124;2023-04-02T02:33:36;16.87;;;15.80;;
16699;SDS011;8466;52.286;21.124;2023-04-02T02:36:15;17.13;;;16.03;;
16699;SDS011;8466;52.286;21.124;2023-04-02T02:38:50;18.63;;;17.30;;
16699;SDS011;8466;52.286;21.124;2023-04-02T02:41:24;16.70;;;15.43;;
16699;SDS011;8466;52.286;21.124;2023-04-02T02:43:58;16.93;;;15.93;;
16699;SDS011;8466;52.286;21.124;2023-04-02T02:46:29;16.13;;;14.93;;
16699;SDS011;8466;52.286;21.124;2023-04-02T02:49:02;8.43;;;7.82;;
16699;SDS011;8466;52.286;21.124;2023-04-02T02:51:38;10.47;;;9.77;;
16699;SDS011;8466;52.286;21.124;2023-04-02T02:54:12;14.43;;;13.57;;
16699;SDS011;8466;52.286;21.124;2023-04-02T02:56:49;15.30;;;14.33;;
16699;SDS011;8466;52.286;21.124;2023-04-02T02:59:25;15.43;;;14.40;;
16699;SDS011;8466;52.286;21.124;2023-04-02T03:01:56;14.17;;;13.23;;
16699;SDS011;8466;52.286;21.124;2023-04-02T03:04:28;15.80;;;14.77;;
16699;SDS011;8466;52.286;21.124;2023-04-02T03:07:02;14.03;;;13.13;;
16699;SDS011;8466;52.286;21.124;2023-04-02T03:09:35;17.20;;;16.00;;
16699;SDS011;8466;52.286;21.124;2023-04-02T03:12:17;19.73;;;18.50;;
16699;SDS011;8466;52.286;21.124;2023-04-02T03:14:57;18.17;;;16.90;;
16699;SDS011;8466;52.286;21.124;2023-04-02T03:17:31;24.50;;;22.73;;
16699;SDS011;8466;52.286;21.124;2023-04-02T03:20:05;18.93;;;17.73;;
16699;SDS011;8466;52.286;21.124;2023-04-02T03:22:43;16.53;;;15.33;;
16699;SDS011;8466;52.286;21.124;2023-04-02T03:25:24;18.43;;;17.17;;
16699;SDS011;8466;52.286;21.124;2023-04-02T03:28:00;19.97;;;18.67;;
16699;SDS011;8466;52.286;21.124;2023-04-02T03:30:34;16.63;;;15.43;;
16699;SDS011;8466;52.286;21.124;2023-04-02T03:33:10;20.37;;;19.03;;
16699;SDS011;8466;52.286;21.124;2023-04-02T03:35:44;16.47;;;15.27;;
16699;SDS011;8466;52.286;21.124;2023-04-02T03:38:17;17.77;;;16.53;;
16699;SDS011;8466;52.286;21.124;2023-04-02T03:40:53;18.10;;;16.80;;
16699;SDS011;8466;52.286;21.124;2023-04-02T03:43:28;17.37;;;16.17;;
16699;SDS011;8466;52.286;21.124;2023-04-02T03:46:01;17.80;;;16.35;;
16699;SDS011;8466;52.286;21.124;2023-04-02T03:48:38;16.13;;;14.87;;
16699;SDS011;8466;52.286;21.124;2023-04-02T03:51:12;15.93;;;14.73;;
16699;SDS011;8466;52.286;21.124;2023-04-02T03:53:45;16.77;;;15.47;;
16699;SDS011;8466;52.286;21.124;2023-04-02T03:56:21;20.87;;;19.37;;
16699;SDS011;8466;52.286;21.124;2023-04-02T03:59:10;21.00;;;19.40;;
16699;SDS011;8466;52.286;21.124;2023-04-02T04:01:48;23.20;;;21.37;;
16699;SDS011;8466;52.286;21.124;2023-04-02T04:04:25;20.33;;;18.73;;
16699;SDS011;8466;52.286;21.124;2023-04-02T04:06:57;20.43;;;18.73;;
16699;SDS011;8466;52.286;21.124;2023-04-02T04:09:28;25.90;;;23.80;;
16699;SDS011;8466;52.286;21.124;2023-04-02T04:12:06;43.37;;;39.60;;
16699;SDS011;8466;52.286;21.124;2023-04-02T04:14:42;26.03;;;23.93;;
16699;SDS011;8466;52.286;21.124;2023-04-02T04:17:18;23.87;;;22.07;;
16699;SDS011;8466;52.286;21.124;2023-04-02T04:19:57;17.63;;;16.23;;
16699;SDS011;8466;52.286;21.124;2023-04-02T04:22:35;15.80;;;14.53;;
16699;SDS011;8466;52.286;21.124;2023-04-02T04:25:04;15.13;;;13.83;;
16699;SDS011;8466;52.286;21.124;2023-04-02T04:27:46;31.17;;;27.33;;
16699;SDS011;8466;52.286;21.124;2023-04-02T04:30:25;19.43;;;17.73;;
16699;SDS011;8466;52.286;21.124;2023-04-02T04:32:57;20.00;;;18.30;;
16699;SDS011;8466;52.286;21.124;2023-04-02T04:35:30;18.67;;;17.17;;
16699;SDS011;8466;52.286;21.124;2023-04-02T04:38:05;21.27;;;19.57;;
16699;SDS011;8466;52.286;21.124;2023-04-02T04:40:41;20.30;;;18.70;;
16699;SDS011;8466;52.286;21.124;2023-04-02T04:43:16;19.40;;;17.80;;
16699;SDS011;8466;52.286;21.124;2023-04-02T04:45:50;22.47;;;20.53;;
16699;SDS011;8466;52.286;21.124;2023-04-02T04:48:26;22.30;;;20.40;;
16699;SDS011;8466;52.286;21.124;2023-04-02T04:51:02;23.33;;;21.37;;
16699;SDS011;8466;52.286;21.124;2023-04-02T04:53:40;24.43;;;22.40;;
16699;SDS011;8466;52.286;21.124;2023-04-02T04:56:13;24.20;;;22.07;;
16699;SDS011;8466;52.286;21.124;2023-04-02T04:58:47;25.83;;;23.30;;
16699;SDS011;8466;52.286;21.124;2023-04-02T05:01:20;25.47;;;23.27;;
16699;SDS011;8466;52.286;21.124;2023-04-02T05:03:53;28.57;;;26.00;;
16699;SDS011;8466;52.286;21.124;2023-04-02T05:06:31;22.93;;;20.83;;
16699;SDS011;8466;52.286;21.124;2023-04-02T05:09:06;22.00;;;19.73;;
16699;SDS011;8466;52.286;21.124;2023-04-02T05:11:43;24.73;;;22.40;;
16699;SDS011;8466;52.286;21.124;2023-04-02T05:14:17;21.93;;;19.93;;
16699;SDS011;8466;52.286;21.124;2023-04-02T05:16:50;39.90;;;36.73;;
16699;SDS011;8466;52.286;21.124;2023-04-02T05:19:26;26.33;;;23.83;;
16699;SDS011;8466;52.286;21.124;2023-04-02T05:22:02;26.67;;;24.27;;
16699;SDS011;8466;52.286;21.124;2023-04-02T05:24:47;25.30;;;23.10;;
16699;SDS011;8466;52.286;21.124;2023-04-02T05:27:23;23.73;;;21.43;;
16699;SDS011;8466;52.286;21.124;2023-04-02T05:29:58;26.63;;;24.00;;
16699;SDS011;8466;52.286;21.124;2023-04-02T05:32:33;36.93;;;34.17;;
16699;SDS011;8466;52.286;21.124;2023-04-02T05:35:09;25.40;;;23.10;;
16699;SDS011;8466;52.286;21.124;2023-04-02T05:37:43;21.63;;;19.73;;
16699;SDS011;8466;52.286;21.124;2023-04-02T05:40:18;34.07;;;31.53;;
16699;SDS011;8466;52.286;21.124;2023-04-02T05:42:50;25.40;;;23.23;;
16699;SDS011;8466;52.286;21.124;2023-04-02T05:45:26;26.93;;;24.83;;
16699;SDS011;8466;52.286;21.124;2023-04-02T05:47:59;22.13;;;20.33;;
16699;SDS011;8466;52.286;21.124;2023-04-02T05:50:32;35.43;;;32.87;;
16699;SDS011;8466;52.286;21.124;2023-04-02T05:53:05;38.23;;;35.53;;
16699;SDS011;8466;52.286;21.124;2023-04-02T05:55:42;25.23;;;23.17;;
16699;SDS011;8466;52.286;21.124;2023-04-02T05:58:20;23.73;;;21.77;;
16699;SDS011;8466;52.286;21.124;2023-04-02T06:00:59;46.53;;;43.43;;
16699;SDS011;8466;52.286;21.124;2023-04-02T06:03:51;25.47;;;23.50;;
16699;SDS011;8466;52.286;21.124;2023-04-02T06:06:41;21.37;;;19.60;;
16699;SDS011;8466;52.286;21.124;2023-04-02T06:09:16;38.97;;;36.20;;
16699;SDS011;8466;52.286;21.124;2023-04-02T06:11:50;28.03;;;25.93;;
16699;SDS011;8466;52.286;21.124;2023-04-02T06:14:24;33.00;;;30.60;;
16699;SDS011;8466;52.286;21.124;2023-04-02T06:16:53;49.40;;;46.07;;
16699;SDS011;8466;52.286;21.124;2023-04-02T06:19:23;29.27;;;27.13;;
16699;SDS011;8466;52.286;21.124;2023-04-02T06:21:56;39.00;;;36.07;;
16699;SDS011;8466;52.286;21.124;2023-04-02T06:24:34;53.70;;;50.30;;
16699;SDS011;8466;52.286;21.124;2023-04-02T06:27:09;36.53;;;34.13;;
16699;SDS011;8466;52.286;21.124;2023-04-02T06:29:41;36.70;;;34.13;;
16699;SDS011;8466;52.286;21.124;2023-04-02T06:32:12;29.27;;;27.40;;
16699;SDS011;8466;52.286;21.124;2023-04-02T06:34:41;23.30;;;21.57;;
16699;SDS011;8466;52.286;21.124;2023-04-02T06:37:12;20.50;;;19.03;;
16699;SDS011;8466;52.286;21.124;2023-04-02T06:39:46;20.77;;;19.27;;
16699;SDS011;8466;52.286;21.124;2023-04-02T06:42:18;20.77;;;19.27;;
16699;SDS011;8466;52.286;21.124;2023-04-02T06:44:49;25.63;;;23.83;;
16699;SDS011;8466;52.286;21.124;2023-04-02T06:47:22;24.07;;;22.23;;
16699;SDS011;8466;52.286;21.124;2023-04-02T06:49:57;32.73;;;30.63;;
16699;SDS011;8466;52.286;21.124;2023-04-02T06:52:33;32.67;;;30.57;;
16699;SDS011;8466;52.286;21.124;2023-04-02T06:55:06;32.33;;;30.13;;
16699;SDS011;8466;52.286;21.124;2023-04-02T06:57:54;46.30;;;43.27;;
16699;SDS011;8466;52.286;21.124;2023-04-02T07:00:27;29.97;;;27.97;;
16699;SDS011;8466;52.286;21.124;2023-04-02T07:03:01;25.73;;;23.87;;
16699;SDS011;8466;52.286;21.124;2023-04-02T07:05:33;14.75;;;13.63;;
16699;SDS011;8466;52.286;21.124;2023-04-02T07:08:02;22.20;;;20.70;;
16699;SDS011;8466;52.286;21.124;2023-04-02T07:10:31;20.60;;;18.97;;
16699;SDS011;8466;52.286;21.124;2023-04-02T07:13:01;22.60;;;20.97;;
16699;SDS011;8466;52.286;21.124;2023-04-02T07:15:31;28.33;;;26.40;;
16699;SDS011;8466;52.286;21.124;2023-04-02T07:18:00;22.57;;;20.93;;
16699;SDS011;8466;52.286;21.124;2023-04-02T07:20:30;20.57;;;19.03;;
16699;SDS011;8466;52.286;21.124;2023-04-02T07:23:03;22.07;;;20.33;;
16699;SDS011;8466;52.286;21.124;2023-04-02T07:25:31;23.37;;;21.67;;
16699;SDS011;8466;52.286;21.124;2023-04-02T07:28:04;23.57;;;21.80;;
16699;SDS011;8466;52.286;21.124;2023-04-02T07:30:32;27.37;;;25.43;;
16699;SDS011;8466;52.286;21.124;2023-04-02T07:33:01;24.27;;;22.50;;
16699;SDS011;8466;52.286;21.124;2023-04-02T07:35:30;13.10;;;11.93;;
16699;SDS011;8466;52.286;21.124;2023-04-02T07:38:00;16.40;;;15.07;;
16699;SDS011;8466;52.286;21.124;2023-04-02T07:40:29;20.27;;;18.67;;
16699;SDS011;8466;52.286;21.124;2023-04-02T07:42:57;20.80;;;19.27;;
16699;SDS011;8466;52.286;21.124;2023-04-02T07:45:28;22.17;;;20.57;;
16699;SDS011;8466;52.286;21.124;2023-04-02T07:47:57;21.90;;;20.27;;
16699;SDS011;8466;52.286;21.124;2023-04-02T07:50:30;24.00;;;22.20;;
16699;SDS011;8466;52.286;21.124;2023-04-02T07:52:59;25.13;;;23.23;;
16699;SDS011;8466;52.286;21.124;2023-04-02T07:55:28;19.60;;;18.07;;
16699;SDS011;8466;52.286;21.124;2023-04-02T07:57:57;19.43;;;18.03;;
16699;SDS011;8466;52.286;21.124;2023-04-02T08:00:38;16.80;;;15.57;;
16699;SDS011;8466;52.286;21.124;2023-04-02T08:03:08;24.10;;;22.27;;
16699;SDS011;8466;52.286;21.124;2023-04-02T08:05:40;25.77;;;24.00;;
16699;SDS011;8466;52.286;21.124;2023-04-02T08:08:09;35.43;;;33.13;;
16699;SDS011;8466;52.286;21.124;2023-04-02T08:10:37;20.00;;;18.63;;
16699;SDS011;8466;52.286;21.124;2023-04-02T08:13:06;21.90;;;20.37;;
16699;SDS011;8466;52.286;21.124;2023-04-02T08:15:36;19.50;;;18.13;;
16699;SDS011;8466;52.286;21.124;2023-04-02T08:18:05;20.63;;;19.20;;
16699;SDS011;8466;52.286;21.124;2023-04-02T08:20:33;10.10;;;9.27;;
16699;SDS011;8466;52.286;21.124;2023-04-02T08:23:02;18.10;;;16.63;;
16699;SDS011;8466;52.286;21.124;2023-04-02T08:25:32;19.90;;;18.57;;
16699;SDS011;8466;52.286;21.124;2023-04-02T08:28:01;19.93;;;18.53;;
16699;SDS011;8466;52.286;21.124;2023-04-02T08:30:30;20.97;;;19.53;;
16699;SDS011;8466;52.286;21.124;2023-04-02T08:33:00;18.43;;;17.10;;
16699;SDS011;8466;52.286;21.124;2023-04-02T08:35:29;22.57;;;20.93;;
16699;SDS011;8466;52.286;21.124;2023-04-02T08:37:58;22.13;;;20.63;;
16699;SDS011;8466;52.286;21.124;2023-04-02T08:40:28;20.43;;;19.13;;
16699;SDS011;8466;52.286;21.124;2023-04-02T08:43:04;17.53;;;16.30;;
16699;SDS011;8466;52.286;21.124;2023-04-02T08:45:54;27.70;;;25.90;;
16699;SDS011;8466;52.286;21.124;2023-04-02T08:48:32;25.53;;;23.83;;
16699;SDS011;8466;52.286;21.124;2023-04-02T08:51:09;20.37;;;18.97;;
16699;SDS011;8466;52.286;21.124;2023-04-02T08:53:48;22.13;;;20.73;;
16699;SDS011;8466;52.286;21.124;2023-04-02T08:56:18;23.97;;;22.43;;
16699;SDS011;8466;52.286;21.124;2023-04-02T08:58:54;17.87;;;16.63;;
16699;SDS011;8466;52.286;21.124;2023-04-02T09:01:32;22.60;;;21.17;;
16699;SDS011;8466;52.286;21.124;2023-04-02T09:04:13;26.23;;;24.47;;
16699;SDS011;8466;52.286;21.124;2023-04-02T09:06:44;24.43;;;22.87;;
16699;SDS011;8466;52.286;21.124;2023-04-02T09:09:14;17.70;;;16.50;;
16699;SDS011;8466;52.286;21.124;2023-04-02T09:11:44;15.97;;;14.77;;
16699;SDS011;8466;52.286;21.124;2023-04-02T09:14:18;38.40;;;36.10;;
16699;SDS011;8466;52.286;21.124;2023-04-02T09:16:50;32.43;;;30.53;;
16699;SDS011;8466;52.286;21.124;2023-04-02T09:19:24;20.87;;;19.40;;
16699;SDS011;8466;52.286;21.124;2023-04-02T09:22:01;20.57;;;19.20;;
16699;SDS011;8466;52.286;21.124;2023-04-02T09:24:34;20.70;;;19.40;;
16699;SDS011;8466;52.286;21.124;2023-04-02T09:27:09;17.43;;;16.00;;
16699;SDS011;8466;52.286;21.124;2023-04-02T09:29:45;29.70;;;27.93;;
16699;SDS011;8466;52.286;21.124;2023-04-02T09:32:21;20.27;;;18.97;;
16699;SDS011;8466;52.286;21.124;2023-04-02T09:35:06;16.77;;;15.60;;
16699;SDS011;8466;52.286;21.124;2023-04-02T09:38:09;22.27;;;20.77;;
16699;SDS011;8466;52.286;21.124;2023-04-02T09:40:50;26.23;;;24.43;;
16699;SDS011;8466;52.286;21.124;2023-04-02T09:43:25;37.27;;;35.00;;
16699;SDS011;8466;52.286;21.124;2023-04-02T09:45:56;25.67;;;24.07;;
16699;SDS011;8466;52.286;21.124;2023-04-02T09:48:27;23.93;;;22.43;;
16699;SDS011;8466;52.286;21.124;2023-04-02T09:53:45;27.57;;;25.97;;
16699;SDS011;8466;52.286;21.124;2023-04-02T09:56:16;17.70;;;16.53;;
16699;SDS011;8466;52.286;21.124;2023-04-02T09:59:00;18.77;;;17.57;;
16699;SDS011;8466;52.286;21.124;2023-04-02T10:01:31;19.90;;;18.67;;
16699;SDS011;8466;52.286;21.124;2023-04-02T10:04:02;17.63;;;16.50;;
16699;SDS011;8466;52.286;21.124;2023-04-02T10:06:34;17.47;;;16.27;;
16699;SDS011;8466;52.286;21.124;2023-04-02T10:09:24;14.67;;;13.73;;
16699;SDS011;8466;52.286;21.124;2023-04-02T10:11:56;23.27;;;21.67;;
16699;SDS011;8466;52.286;21.124;2023-04-02T10:14:27;20.53;;;19.23;;
16699;SDS011;8466;52.286;21.124;2023-04-02T10:16:59;18.87;;;17.67;;
16699;SDS011;8466;52.286;21.124;2023-04-02T10:19:46;19.57;;;18.30;;
16699;SDS011;8466;52.286;21.124;2023-04-02T10:22:19;10.93;;;10.02;;
16699;SDS011;8466;52.286;21.124;2023-04-02T10:24:51;14.47;;;13.17;;
16699;SDS011;8466;52.286;21.124;2023-04-02T10:27:23;22.47;;;21.07;;
16699;SDS011;8466;52.286;21.124;2023-04-02T10:29:59;19.60;;;18.37;;
16699;SDS011;8466;52.286;21.124;2023-04-02T10:32:43;21.37;;;20.07;;
16699;SDS011;8466;52.286;21.124;2023-04-02T10:35:19;16.07;;;14.87;;
16699;SDS011;8466;52.286;21.124;2023-04-02T10:38:08;24.03;;;22.43;;
16699;SDS011;8466;52.286;21.124;2023-04-02T10:41:06;24.80;;;23.27;;
16699;SDS011;8466;52.286;21.124;2023-04-02T10:43:52;20.20;;;18.73;;
16699;SDS011;8466;52.286;21.124;2023-04-02T10:46:46;25.47;;;23.63;;
16699;SDS011;8466;52.286;21.124;2023-04-02T10:49:26;20.27;;;18.87;;
16699;SDS011;8466;52.286;21.124;2023-04-02T10:52:00;18.63;;;17.27;;
16699;SDS011;8466;52.286;21.124;2023-04-02T10:54:38;18.40;;;17.10;;
16699;SDS011;8466;52.286;21.124;2023-04-02T10:57:23;18.50;;;17.10;;
16699;SDS011;8466;52.286;21.124;2023-04-02T10:59:58;28.03;;;26.03;;
16699;SDS011;8466;52.286;21.124;2023-04-02T11:02:35;25.70;;;23.67;;
16699;SDS011;8466;52.286;21.124;2023-04-02T11:05:15;33.37;;;30.90;;
16699;SDS011;8466;52.286;21.124;2023-04-02T11:07:52;20.37;;;18.87;;
16699;SDS011;8466;52.286;21.124;2023-04-02T11:10:25;28.67;;;26.60;;
16699;SDS011;8466;52.286;21.124;2023-04-02T11:13:02;20.47;;;18.87;;
16699;SDS011;8466;52.286;21.124;2023-04-02T11:15:36;30.93;;;28.67;;
16699;SDS011;8466;52.286;21.124;2023-04-02T11:18:05;22.07;;;20.23;;
16699;SDS011;8466;52.286;21.124;2023-04-02T11:20:55;22.93;;;21.10;;
16699;SDS011;8466;52.286;21.124;2023-04-02T11:23:28;25.43;;;23.40;;
16699;SDS011;8466;52.286;21.124;2023-04-02T11:29:15;33.07;;;30.97;;
16699;SDS011;8466;52.286;21.124;2023-04-02T11:31:47;27.27;;;25.27;;
16699;SDS011;8466;52.286;21.124;2023-04-02T11:37:33;23.60;;;21.93;;
16699;SDS011;8466;52.286;21.124;2023-04-02T11:52:02;24.50;;;22.83;;
16699;SDS011;8466;52.286;21.124;2023-04-02T11:54:38;26.07;;;24.13;;
16699;SDS011;8466;52.286;21.124;2023-04-02T11:57:09;22.60;;;21.00;;
16699;SDS011;8466;52.286;21.124;2023-04-02T11:59:51;21.30;;;19.60;;
16699;SDS011;8466;52.286;21.124;2023-04-02T12:02:35;25.27;;;23.33;;
16699;SDS011;8466;52.286;21.124;2023-04-02T12:05:15;30.17;;;28.13;;
16699;SDS011;8466;52.286;21.124;2023-04-02T12:07:54;22.93;;;21.13;;
16699;SDS011;8466;52.286;21.124;2023-04-02T12:10:48;30.47;;;28.37;;
16699;SDS011;8466;52.286;21.124;2023-04-02T12:13:45;13.57;;;12.47;;
16699;SDS011;8466;52.286;21.124;2023-04-02T12:16:19;18.20;;;16.63;;
16699;SDS011;8466;52.286;21.124;2023-04-02T12:18:54;25.80;;;23.80;;
16699;SDS011;8466;52.286;21.124;2023-04-02T12:21:24;21.23;;;19.53;;
16699;SDS011;8466;52.286;21.124;2023-04-02T12:23:54;21.50;;;20.00;;
16699;SDS011;8466;52.286;21.124;2023-04-02T12:26:29;26.83;;;24.80;;
16699;SDS011;8466;52.286;21.124;2023-04-02T12:29:14;27.27;;;24.67;;
16699;SDS011;8466;52.286;21.124;2023-04-02T12:31:53;36.77;;;34.13;;
16699;SDS011;8466;52.286;21.124;2023-04-02T12:34:25;26.00;;;23.83;;
16699;SDS011;8466;52.286;21.124;2023-04-02T12:36:55;23.37;;;21.47;;
16699;SDS011;8466;52.286;21.124;2023-04-02T12:39:28;31.70;;;29.47;;
16699;SDS011;8466;52.286;21.124;2023-04-02T12:41:58;21.13;;;19.53;;
16699;SDS011;8466;52.286;21.124;2023-04-02T12:44:27;18.33;;;16.73;;
16699;SDS011;8466;52.286;21.124;2023-04-02T12:46:57;22.93;;;21.03;;
16699;SDS011;8466;52.286;21.124;2023-04-02T12:49:43;21.63;;;19.97;;
16699;SDS011;8466;52.286;21.124;2023-04-02T12:52:13;25.80;;;23.97;;
16699;SDS011;8466;52.286;21.124;2023-04-02T12:54:45;18.40;;;17.00;;
16699;SDS011;8466;52.286;21.124;2023-04-02T12:57:20;22.17;;;20.60;;
16699;SDS011;8466;52.286;21.124;2023-04-02T13:00:27;17.47;;;16.10;;
16699;SDS011;8466;52.286;21.124;2023-04-02T13:03:15;18.77;;;17.40;;
16699;SDS011;8466;52.286;21.124;2023-04-02T13:05:48;20.73;;;19.13;;
16699;SDS011;8466;52.286;21.124;2023-04-02T13:08:21;23.93;;;22.30;;
16699;SDS011;8466;52.286;21.124;2023-04-02T13:10:53;21.30;;;19.83;;
16699;SDS011;8466;52.286;21.124;2023-04-02T13:13:25;18.93;;;17.73;;
16699;SDS011;8466;52.286;21.124;2023-04-02T13:16:04;23.27;;;21.57;;
16699;SDS011;8466;52.286;21.124;2023-04-02T13:18:35;17.53;;;16.33;;
16699;SDS011;8466;52.286;21.124;2023-04-02T13:21:20;19.80;;;18.50;;
16699;SDS011;8466;52.286;21.124;2023-04-02T13:23:54;16.40;;;15.30;;
16699;SDS011;8466;52.286;21.124;2023-04-02T13:26:23;23.73;;;22.23;;
16699;SDS011;8466;52.286;21.124;2023-04-02T13:28:54;22.20;;;20.67;;
16699;SDS011;8466;52.286;21.124;2023-04-02T13:31:24;31.87;;;29.70;;
16699;SDS011;8466;52.286;21.124;2023-04-02T13:33:53;22.90;;;21.40;;
16699;SDS011;8466;52.286;21.124;2023-04-02T13:36:24;21.97;;;20.50;;
16699;SDS011;8466;52.286;21.124;2023-04-02T13:38:55;26.20;;;24.60;;
16699;SDS011;8466;52.286;21.124;2023-04-02T13:41:24;29.73;;;27.77;;
16699;SDS011;8466;52.286;21.124;2023-04-02T13:43:54;24.23;;;22.50;;
16699;SDS011;8466;52.286;21.124;2023-04-02T13:46:26;28.30;;;26.57;;
16699;SDS011;8466;52.286;21.124;2023-04-02T13:48:56;33.33;;;31.23;;
16699;SDS011;8466;52.286;21.124;2023-04-02T13:51:30;24.03;;;22.40;;
16699;SDS011;8466;52.286;21.124;2023-04-02T13:54:03;22.13;;;20.50;;
16699;SDS011;8466;52.286;21.124;2023-04-02T13:56:35;30.67;;;28.53;;
16699;SDS011;8466;52.286;21.124;2023-04-02T13:59:04;40.47;;;37.50;;
16699;SDS011;8466;52.286;21.124;2023-04-02T14:01:33;20.97;;;19.43;;
16699;SDS011;8466;52.286;21.124;2023-04-02T14:04:03;31.83;;;29.57;;
16699;SDS011;8466;52.286;21.124;2023-04-02T14:06:41;30.90;;;28.83;;
16699;SDS011;8466;52.286;21.124;2023-04-02T14:09:29;38.20;;;35.87;;
16699;SDS011;8466;52.286;21.124;2023-04-02T14:12:11;27.33;;;25.60;;
16699;SDS011;8466;52.286;21.124;2023-04-02T14:14:50;25.23;;;23.63;;
16699;SDS011;8466;52.286;21.124;2023-04-02T14:17:31;33.67;;;31.67;;
16699;SDS011;8466;52.286;21.124;2023-04-02T14:20:12;32.43;;;30.53;;
16699;SDS011;8466;52.286;21.124;2023-04-02T14:22:58;25.33;;;23.73;;
16699;SDS011;8466;52.286;21.124;2023-04-02T14:25:42;25.17;;;23.53;;
16699;SDS011;8466;52.286;21.124;2023-04-02T14:28:17;28.47;;;26.60;;
16699;SDS011;8466;52.286;21.124;2023-04-02T14:30:53;29.03;;;27.13;;
16699;SDS011;8466;52.286;21.124;2023-04-02T14:33:32;30.03;;;28.07;;
16699;SDS011;8466;52.286;21.124;2023-04-02T14:36:10;27.33;;;25.50;;
16699;SDS011;8466;52.286;21.124;2023-04-02T14:38:46;30.77;;;28.87;;
16699;SDS011;8466;52.286;21.124;2023-04-02T14:41:23;28.37;;;26.53;;
16699;SDS011;8466;52.286;21.124;2023-04-02T14:44:00;26.70;;;25.03;;
16699;SDS011;8466;52.286;21.124;2023-04-02T14:46:32;23.03;;;21.53;;
16699;SDS011;8466;52.286;21.124;2023-04-02T14:49:04;23.63;;;22.03;;
16699;SDS011;8466;52.286;21.124;2023-04-02T14:51:47;9.60;;;8.85;;
16699;SDS011;8466;52.286;21.124;2023-04-02T14:57:09;12.47;;;11.57;;
16699;SDS011;8466;52.286;21.124;2023-04-02T14:59:49;20.03;;;18.73;;
16699;SDS011;8466;52.286;21.124;2023-04-02T15:02:26;18.53;;;17.17;;
16699;SDS011;8466;52.286;21.124;2023-04-02T15:05:06;27.70;;;25.83;;
16699;SDS011;8466;52.286;21.124;2023-04-02T15:07:44;28.13;;;26.23;;
16699;SDS011;8466;52.286;21.124;2023-04-02T15:10:25;26.43;;;24.63;;
16699;SDS011;8466;52.286;21.124;2023-04-02T15:12:57;29.70;;;27.90;;
16699;SDS011;8466;52.286;21.124;2023-04-02T15:15:33;30.40;;;28.40;;
16699;SDS011;8466;52.286;21.124;2023-04-02T15:18:14;28.77;;;26.77;;
16699;SDS011;8466;52.286;21.124;2023-04-02T15:20:51;35.60;;;33.30;;
16699;SDS011;8466;52.286;21.124;2023-04-02T15:23:33;28.87;;;26.87;;
16699;SDS011;8466;52.286;21.124;2023-04-02T15:26:16;30.40;;;28.33;;
16699;SDS011;8466;52.286;21.124;2023-04-02T15:28:49;31.80;;;29.63;;
16699;SDS011;8466;52.286;21.124;2023-04-02T15:31:23;31.87;;;29.63;;
16699;SDS011;8466;52.286;21.124;2023-04-02T15:33:58;33.17;;;30.97;;
16699;SDS011;8466;52.286;21.124;2023-04-02T15:36:44;38.97;;;36.33;;